Time;durP1;ratioP1;P1;durP2;ratioP2;P2;SDS_P1;SDS_P2;PMS_P1;PMS_P2;Temp;Humidity;BMP_temperature;BMP_pressure;BME280_temperature;BME280_humidity;BME280_pressure;Samples;Min_cycle;Max_cycle;Signal;HPM_P1;HPM_P2
2023/02/02 00:01:56;;;;;;;22.55;3.92;;;5.00;99.90;;;;;;5050233;28;20352;-39
2023/02/02 00:04:24;;;;;;;23.85;4.38;;;5.00;99.90;;;;;;5050870;28;20067;-39
2023/02/02 00:06:51;;;;;;;29.77;4.22;;;5.10;99.90;;;;;;5049143;28;20025;-39
2023/02/02 00:09:18;;;;;;;33.10;4.97;;;5.00;99.90;;;;;;5050608;28;20029;-40
2023/02/02 00:11:46;;;;;;;30.40;4.72;;;5.00;99.90;;;;;;5058624;28;20592;-39
2023/02/02 00:14:11;;;;;;;23.80;4.18;;;5.00;99.90;;;;;;5067496;28;20119;-39
2023/02/02 00:16:40;;;;;;;26.95;4.57;;;5.00;99.90;;;;;;5070467;28;20162;-39
2023/02/02 00:19:21;;;;;;;27.25;5.05;;;5.00;99.90;;;;;;5070507;28;20044;-39
2023/02/02 00:21:47;;;;;;;26.60;3.92;;;5.00;99.90;;;;;;5059389;28;20386;-44
2023/02/02 00:24:14;;;;;;;24.50;4.30;;;5.10;99.90;;;;;;5050185;28;20036;-40
2023/02/02 00:26:41;;;;;;;21.70;3.30;;;5.10;99.90;;;;;;5049936;28;20066;-40
2023/02/02 00:29:11;;;;;;;22.80;4.68;;;5.10;99.90;;;;;;5050169;28;20108;-39
2023/02/02 00:31:36;;;;;;;25.52;4.43;;;5.00;99.90;;;;;;5050257;28;20225;-39
2023/02/02 00:34:02;;;;;;;23.13;4.57;;;5.00;99.90;;;;;;5049841;28;20033;-40
2023/02/02 00:36:28;;;;;;;21.42;4.47;;;5.10;99.90;;;;;;5049767;28;20229;-39
2023/02/02 00:38:53;;;;;;;37.97;6.32;;;5.00;99.90;;;;;;5050166;28;20510;-39
2023/02/02 00:41:19;;;;;;;26.35;5.28;;;5.00;99.90;;;;;;5058024;28;20028;-40
2023/02/02 00:45:14;;;;;;;27.17;3.80;;;5.10;99.90;;;;;;5062703;28;20025;-39
2023/02/02 00:46:30;;;;;;;21.85;3.83;;;5.10;99.90;;;;;;5069616;28;20353;-40
2023/02/02 00:48:56;;;;;;;26.48;3.65;;;5.20;99.90;;;;;;5070096;28;20078;-39
2023/02/02 00:51:21;;;;;;;25.05;3.63;;;5.20;99.90;;;;;;5060703;28;20021;-40
2023/02/02 00:53:47;;;;;;;32.47;5.68;;;5.20;99.90;;;;;;5049760;28;20098;-40
2023/02/02 00:56:12;;;;;;;43.22;6.70;;;5.20;99.90;;;;;;5049232;28;20025;-39
2023/02/02 00:58:38;;;;;;;23.27;4.35;;;5.20;99.90;;;;;;5049451;28;20406;-40
2023/02/02 01:01:03;;;;;;;20.42;4.20;;;5.10;99.90;;;;;;5049774;28;20086;-39
2023/02/02 01:03:29;;;;;;;30.42;3.97;;;5.10;99.90;;;;;;5049669;28;20029;-38
2023/02/02 01:05:54;;;;;;;22.10;4.05;;;5.20;99.90;;;;;;5049211;28;20271;-39
2023/02/02 01:08:20;;;;;;;27.55;4.90;;;5.20;99.90;;;;;;5049846;28;20031;-39
2023/02/02 01:10:45;;;;;;;19.10;4.18;;;5.20;99.90;;;;;;5052153;28;20021;-38
2023/02/02 01:13:11;;;;;;;29.20;4.60;;;5.20;99.90;;;;;;5060187;28;20027;-39
2023/02/02 01:15:36;;;;;;;20.88;4.53;;;5.20;99.90;;;;;;5069043;28;20028;-39
2023/02/02 01:18:02;;;;;;;19.45;4.93;;;5.20;99.90;;;;;;5068115;28;20028;-39
2023/02/02 01:20:28;;;;;;;25.92;5.07;;;5.10;99.90;;;;;;5069021;28;20085;-39
2023/02/02 01:22:53;;;;;;;26.98;4.45;;;5.10;99.90;;;;;;5049200;28;20057;-39
2023/02/02 01:25:19;;;;;;;31.45;5.30;;;5.20;99.90;;;;;;5048459;28;20036;-39
2023/02/02 01:27:44;;;;;;;32.50;4.60;;;5.10;99.90;;;;;;5049167;28;20205;-39
2023/02/02 01:30:11;;;;;;;27.08;3.90;;;5.10;99.90;;;;;;5049224;28;20053;-39
2023/02/02 01:32:36;;;;;;;29.42;6.75;;;5.10;99.90;;;;;;5049419;28;20029;-38
2023/02/02 01:35:02;;;;;;;28.88;4.50;;;5.20;99.90;;;;;;5048836;28;20386;-39
2023/02/02 01:37:27;;;;;;;29.58;4.47;;;5.20;99.90;;;;;;5049356;28;20037;-38
2023/02/02 01:39:53;;;;;;;25.00;5.03;;;5.20;99.90;;;;;;5049118;28;20029;-39
2023/02/02 01:42:22;;;;;;;37.95;5.18;;;5.20;99.90;;;;;;5057737;28;20021;-39
2023/02/02 01:45:15;;;;;;;25.30;4.60;;;5.10;99.90;;;;;;5068772;28;20029;-39
2023/02/02 01:47:49;;;;;;;21.20;5.13;;;5.00;99.90;;;;;;5069234;28;20052;-39
2023/02/02 01:50:16;;;;;;;29.00;4.40;;;5.10;99.90;;;;;;5069251;28;20024;-39
2023/02/02 01:52:47;;;;;;;26.98;4.32;;;5.10;99.90;;;;;;5049908;28;20025;-39
2023/02/02 01:55:16;;;;;;;21.88;3.92;;;5.10;99.90;;;;;;5046907;28;20056;-38
2023/02/02 01:58:09;;;;;;;20.50;4.38;;;5.20;99.90;;;;;;5048328;28;20143;-39
2023/02/02 02:00:37;;;;;;;30.95;5.00;;;5.20;99.90;;;;;;5048541;28;20293;-39
2023/02/02 02:03:10;;;;;;;31.00;5.07;;;5.10;99.90;;;;;;5048991;28;20036;-39
2023/02/02 02:05:41;;;;;;;39.80;5.30;;;5.00;99.90;;;;;;5048231;28;20028;-39
2023/02/02 02:08:36;;;;;;;29.05;4.68;;;4.90;99.90;;;;;;5048339;28;20032;-38
2023/02/02 02:11:03;;;;;;;24.33;4.68;;;4.90;99.90;;;;;;5054648;28;20021;-38
2023/02/02 02:16:31;;;;;;;27.33;3.80;;;5.00;99.90;;;;;;5067916;28;20304;-39
2023/02/02 02:19:14;;;;;;;27.85;5.13;;;5.00;99.90;;;;;;5068346;28;20304;-39
2023/02/02 02:28:02;;;;;;;24.60;4.65;;;5.00;99.90;;;;;;5047992;28;20043;-38
2023/02/02 02:31:00;;;;;;;19.98;3.75;;;5.00;99.90;;;;;;5048273;28;20546;-38
2023/02/02 02:33:34;;;;;;;25.33;4.70;;;5.00;99.90;;;;;;5047961;28;20070;-38
2023/02/02 02:36:09;;;;;;;31.55;4.35;;;5.00;99.90;;;;;;5047893;28;20021;-38
2023/02/02 02:38:52;;;;;;;28.88;3.80;;;5.00;99.90;;;;;;5047968;28;20078;-38
2023/02/02 02:41:26;;;;;;;25.35;4.47;;;5.00;99.90;;;;;;5056011;28;20025;-38
2023/02/02 02:43:58;;;;;;;27.33;4.55;;;5.10;99.90;;;;;;5061980;28;20020;-39
2023/02/02 02:46:25;;;;;;;23.55;3.78;;;5.00;99.90;;;;;;5067454;28;20336;-39
2023/02/02 02:48:51;;;;;;;31.95;4.28;;;5.00;99.90;;;;;;5067873;28;20025;-39
2023/02/02 02:51:44;;;;;;;35.00;5.32;;;5.10;99.90;;;;;;5060658;28;20023;-38
2023/02/02 02:54:23;;;;;;;26.30;3.92;;;5.10;99.90;;;;;;5047586;28;20025;-39
2023/02/02 02:57:18;;;;;;;27.35;5.05;;;5.00;99.90;;;;;;5046761;28;20028;-39
2023/02/02 02:59:46;;;;;;;21.75;4.65;;;4.90;99.90;;;;;;5047898;28;20021;-38
2023/02/02 03:02:34;;;;;;;25.13;4.30;;;5.00;99.90;;;;;;5047688;28;20474;-38
2023/02/02 03:05:02;;;;;;;26.65;4.93;;;5.00;99.90;;;;;;5047199;28;20098;-39
2023/02/02 03:07:36;;;;;;;19.83;3.28;;;4.90;99.90;;;;;;5047942;28;20029;-38
2023/02/02 03:10:05;;;;;;;26.13;5.93;;;4.90;99.90;;;;;;5047588;28;20091;-39
2023/02/02 03:12:30;;;;;;;14.95;4.00;;;4.80;99.90;;;;;;5057818;28;20032;-39
2023/02/02 03:14:56;;;;;;;31.83;5.00;;;4.90;99.90;;;;;;5067109;28;20029;-39
2023/02/02 03:17:21;;;;;;;20.08;3.72;;;4.90;99.90;;;;;;5067636;28;20104;-40
2023/02/02 03:19:47;;;;;;;27.60;4.07;;;4.80;99.90;;;;;;5067570;28;20020;-39
2023/02/02 03:22:12;;;;;;;18.00;4.43;;;4.90;99.90;;;;;;5051331;28;20052;-39
2023/02/02 03:24:39;;;;;;;31.85;5.90;;;4.80;99.90;;;;;;5045966;28;20031;-39
2023/02/02 03:27:04;;;;;;;17.70;4.65;;;4.80;99.90;;;;;;5047686;28;20021;-39
2023/02/02 03:29:30;;;;;;;20.92;3.65;;;4.80;99.90;;;;;;5047945;28;20514;-39
2023/02/02 03:31:56;;;;;;;45.08;7.63;;;4.90;99.90;;;;;;5048043;28;20029;-39
2023/02/02 03:34:21;;;;;;;18.13;3.17;;;4.90;99.90;;;;;;5047936;28;20029;-39
2023/02/02 03:36:47;;;;;;;22.25;3.47;;;4.90;99.90;;;;;;5048496;28;20036;-39
2023/02/02 03:39:12;;;;;;;22.08;4.20;;;4.90;99.90;;;;;;5051669;28;20028;-39
2023/02/02 03:41:38;;;;;;;30.38;5.05;;;4.80;99.90;;;;;;5059105;28;20021;-39
2023/02/02 03:44:03;;;;;;;24.75;5.00;;;4.90;99.90;;;;;;5066383;28;20505;-39
2023/02/02 03:46:29;;;;;;;37.47;4.60;;;4.90;99.90;;;;;;5069503;28;20505;-39
2023/02/02 03:48:54;;;;;;;27.27;4.18;;;4.80;99.90;;;;;;5070120;28;20103;-39
2023/02/02 03:51:20;;;;;;;33.78;5.32;;;4.90;99.90;;;;;;5063649;28;20430;-39
2023/02/02 03:53:48;;;;;;;20.50;4.40;;;4.80;99.90;;;;;;5050908;28;20173;-39
2023/02/02 03:56:14;;;;;;;24.95;4.40;;;4.70;99.90;;;;;;5050393;28;20017;-39
2023/02/02 03:58:40;;;;;;;30.55;4.25;;;4.70;99.90;;;;;;5050870;28;20029;-39
2023/02/02 04:01:10;;;;;;;28.42;3.95;;;4.70;99.90;;;;;;5051034;28;20414;-39
2023/02/02 04:03:36;;;;;;;25.45;4.47;;;4.70;99.90;;;;;;5051056;28;20128;-39
2023/02/02 04:06:02;;;;;;;31.58;5.10;;;4.70;99.90;;;;;;5050452;28;20112;-39
2023/02/02 04:08:28;;;;;;;19.58;4.00;;;4.70;99.90;;;;;;5049698;28;20553;-39
2023/02/02 04:10:54;;;;;;;32.17;5.38;;;4.60;99.90;;;;;;5056435;28;20107;-39
2023/02/02 04:13:20;;;;;;;26.95;4.57;;;4.70;99.90;;;;;;5062324;28;20104;-39
2023/02/02 04:15:45;;;;;;;21.40;4.78;;;4.60;99.90;;;;;;5070611;28;20059;-39
2023/02/02 04:18:11;;;;;;;19.85;4.40;;;4.60;99.90;;;;;;5071097;28;20533;-39
2023/02/02 04:20:36;;;;;;;24.80;4.53;;;4.60;99.90;;;;;;5069321;28;20287;-39
2023/02/02 04:23:02;;;;;;;27.90;4.15;;;4.50;99.90;;;;;;5050466;28;20091;-39
2023/02/02 04:25:27;;;;;;;26.60;6.50;;;4.50;99.90;;;;;;5049995;28;20035;-38
2023/02/02 04:27:53;;;;;;;28.48;5.22;;;4.50;99.90;;;;;;5049828;28;20071;-39
2023/02/02 04:30:18;;;;;;;22.63;4.05;;;4.60;99.90;;;;;;5050597;28;20191;-39
2023/02/02 04:32:45;;;;;;;20.35;4.10;;;4.60;99.90;;;;;;5050809;28;20021;-39
2023/02/02 04:35:11;;;;;;;24.48;4.30;;;4.60;99.90;;;;;;5049910;28;20587;-38
2023/02/02 04:37:36;;;;;;;24.25;4.28;;;4.70;99.90;;;;;;5050292;28;20036;-39
2023/02/02 04:40:02;;;;;;;19.23;4.28;;;4.70;99.90;;;;;;5050148;28;20017;-39
2023/02/02 04:42:28;;;;;;;23.13;5.68;;;4.70;99.90;;;;;;5059750;28;20029;-38
2023/02/02 04:44:54;;;;;;;36.20;4.78;;;4.80;99.90;;;;;;5069853;28;20020;-38
2023/02/02 04:47:19;;;;;;;41.88;5.20;;;4.80;99.90;;;;;;5067000;28;20028;-39
2023/02/02 04:49:45;;;;;;;26.63;3.83;;;4.80;99.90;;;;;;5050394;28;20474;-39
2023/02/02 04:52:11;;;;;;;22.70;4.50;;;4.80;99.90;;;;;;5050249;28;20432;-39
2023/02/02 04:54:36;;;;;;;18.05;4.05;;;4.80;99.90;;;;;;5048315;28;20029;-39
2023/02/02 04:57:02;;;;;;;26.77;4.15;;;4.80;99.90;;;;;;5049539;28;20024;-38
2023/02/02 04:59:28;;;;;;;28.38;4.43;;;4.90;99.90;;;;;;5050114;28;20108;-38
2023/02/02 05:02:01;;;;;;;19.63;4.88;;;4.80;99.90;;;;;;5050212;28;20067;-39
2023/02/02 05:04:26;;;;;;;27.45;4.63;;;4.80;99.90;;;;;;5049825;28;20063;-39
2023/02/02 05:06:52;;;;;;;27.83;4.05;;;4.80;99.90;;;;;;5049277;28;20033;-40
2023/02/02 05:09:17;;;;;;;29.48;4.18;;;4.80;99.90;;;;;;5049561;28;20032;-40
2023/02/02 05:11:43;;;;;;;23.55;5.45;;;4.70;99.90;;;;;;5054816;28;20031;-40
2023/02/02 05:14:09;;;;;;;28.20;4.22;;;4.70;99.90;;;;;;5049877;28;20027;-40
2023/02/02 05:16:35;;;;;;;30.40;4.65;;;4.70;99.90;;;;;;5048263;28;20116;-40
2023/02/02 05:19:01;;;;;;;21.25;4.28;;;4.70;99.90;;;;;;5049247;28;20108;-39
2023/02/02 05:21:27;;;;;;;41.00;6.13;;;4.70;99.90;;;;;;5048792;28;20264;-39
2023/02/02 05:23:52;;;;;;;24.10;4.47;;;4.70;99.90;;;;;;5049064;28;20436;-40
2023/02/02 05:26:24;;;;;;;34.75;5.97;;;4.70;99.90;;;;;;5048345;28;20108;-40
2023/02/02 05:28:49;;;;;;;21.15;4.55;;;4.60;99.90;;;;;;5048349;28;20033;-40
2023/02/02 05:31:15;;;;;;;23.55;4.63;;;4.60;99.90;;;;;;5046744;28;20091;-40
2023/02/02 05:33:41;;;;;;;24.65;4.38;;;4.60;99.90;;;;;;5048448;28;20098;-40
2023/02/02 05:36:07;;;;;;;25.48;6.22;;;4.60;99.90;;;;;;5046714;28;20012;-40
2023/02/02 05:38:33;;;;;;;21.30;4.03;;;4.60;99.90;;;;;;5048578;28;20289;-39
2023/02/02 05:40:59;;;;;;;26.67;4.80;;;4.50;99.90;;;;;;5047917;28;20032;-39
2023/02/02 05:43:26;;;;;;;28.00;4.13;;;4.50;99.90;;;;;;5058764;28;20017;-40
2023/02/02 05:45:52;;;;;;;28.75;4.95;;;4.50;99.90;;;;;;5061120;28;20028;-38
2023/02/02 05:48:18;;;;;;;23.98;4.50;;;4.40;99.90;;;;;;5049279;28;20032;-39
2023/02/02 05:50:48;;;;;;;21.95;5.07;;;4.40;99.90;;;;;;5048383;28;20067;-37
2023/02/02 05:53:14;;;;;;;15.65;3.15;;;4.40;99.90;;;;;;5050068;28;20033;-38
2023/02/02 05:55:40;;;;;;;27.58;5.03;;;4.40;99.90;;;;;;5048424;28;20375;-38
2023/02/02 05:58:05;;;;;;;35.53;5.20;;;4.40;99.90;;;;;;5052084;28;20032;-38
2023/02/02 06:00:31;;;;;;;27.25;4.82;;;4.40;99.90;;;;;;5068223;28;20028;-38
2023/02/02 06:02:56;;;;;;;25.67;4.97;;;4.40;99.90;;;;;;5068572;28;20032;-38
2023/02/02 06:05:22;;;;;;;27.05;4.85;;;4.40;99.90;;;;;;5068281;28;20025;-38
2023/02/02 06:07:47;;;;;;;29.05;4.80;;;4.40;99.90;;;;;;5068377;28;20032;-38
2023/02/02 06:10:13;;;;;;;36.60;5.20;;;4.40;99.90;;;;;;5067100;28;20067;-38
2023/02/02 06:12:38;;;;;;;27.95;4.65;;;4.30;99.90;;;;;;5068166;28;20164;-38
2023/02/02 06:15:05;;;;;;;30.15;6.05;;;4.30;99.90;;;;;;5065784;28;20036;-38
2023/02/02 06:17:30;;;;;;;34.28;5.15;;;4.30;99.90;;;;;;5066525;28;20021;-38
2023/02/02 06:19:56;;;;;;;31.67;5.10;;;4.30;99.90;;;;;;5049147;28;20416;-38
2023/02/02 06:22:21;;;;;;;35.47;5.85;;;4.30;99.90;;;;;;5048120;28;20027;-38
2023/02/02 06:24:47;;;;;;;41.38;6.93;;;4.30;99.90;;;;;;5047828;28;20086;-38
2023/02/02 06:27:12;;;;;;;34.72;7.38;;;4.30;99.90;;;;;;5048594;28;20451;-38
2023/02/02 06:29:38;;;;;;;41.63;6.47;;;4.30;99.90;;;;;;5048877;28;20108;-38
2023/02/02 06:32:03;;;;;;;21.58;4.57;;;4.40;99.90;;;;;;5049764;28;20086;-37
2023/02/02 06:34:29;;;;;;;29.73;4.65;;;4.30;99.90;;;;;;5049410;28;20490;-38
2023/02/02 06:36:54;;;;;;;29.58;5.88;;;4.40;99.90;;;;;;5048090;28;20029;-38
2023/02/02 06:39:20;;;;;;;34.20;6.45;;;4.30;99.90;;;;;;5048143;28;20509;-38
2023/02/02 06:41:47;;;;;;;23.35;4.38;;;4.50;99.90;;;;;;5046869;28;20032;-38
2023/02/02 06:44:14;;;;;;;29.75;5.32;;;4.40;99.90;;;;;;5048430;28;20366;-38
2023/02/02 06:46:40;;;;;;;37.17;5.05;;;4.40;99.90;;;;;;5048175;28;20032;-38
2023/02/02 06:49:05;;;;;;;31.05;4.90;;;4.40;99.90;;;;;;5048311;28;20021;-38
2023/02/02 06:51:31;;;;;;;30.95;6.00;;;4.50;99.90;;;;;;5047944;28;20021;-38
2023/02/02 06:53:56;;;;;;;30.05;5.25;;;4.50;99.90;;;;;;5047807;28;20061;-38
2023/02/02 06:56:22;;;;;;;28.15;5.13;;;4.50;99.90;;;;;;5047437;28;20078;-38
2023/02/02 06:58:47;;;;;;;20.98;5.05;;;4.50;99.90;;;;;;5049173;28;20409;-48
2023/02/02 07:01:13;;;;;;;32.90;5.65;;;4.50;99.90;;;;;;5049567;28;20436;-49
2023/02/02 07:03:39;;;;;;;21.48;4.57;;;4.50;99.90;;;;;;5048762;28;20056;-48
2023/02/02 07:06:15;;;;;;;30.60;5.20;;;4.50;99.90;;;;;;5047784;28;20033;-47
2023/02/02 07:08:40;;;;;;;32.30;5.47;;;4.50;99.90;;;;;;5048003;28;20509;-49
2023/02/02 07:11:06;;;;;;;37.38;5.43;;;4.50;99.90;;;;;;5043918;28;20034;-47
2023/02/02 07:13:32;;;;;;;24.13;4.50;;;4.50;99.90;;;;;;5051184;28;20075;-49
2023/02/02 07:15:57;;;;;;;27.55;5.93;;;4.50;99.90;;;;;;5050877;28;20024;-47
2023/02/02 07:18:23;;;;;;;49.25;6.93;;;4.50;99.90;;;;;;5051361;28;20021;-50
2023/02/02 07:20:48;;;;;;;27.50;4.45;;;4.50;99.90;;;;;;5051426;28;20100;-51
2023/02/02 07:23:14;;;;;;;21.23;4.97;;;4.60;99.90;;;;;;5050447;28;20497;-49
2023/02/02 07:25:40;;;;;;;33.47;7.07;;;4.60;99.90;;;;;;5050807;28;20021;-47
2023/02/02 07:28:05;;;;;;;32.47;5.10;;;4.60;99.90;;;;;;5051905;28;20029;-48
2023/02/02 07:30:31;;;;;;;28.73;4.50;;;4.70;99.90;;;;;;5050002;28;20455;-49
2023/02/02 07:32:56;;;;;;;36.55;5.72;;;4.70;99.90;;;;;;5050194;28;20486;-47
2023/02/02 07:35:22;;;;;;;39.05;5.60;;;4.70;99.90;;;;;;5050811;28;20167;-47
2023/02/02 07:37:52;;;;;;;31.27;5.10;;;4.80;99.90;;;;;;5051615;28;20025;-48
2023/02/02 07:40:18;;;;;;;34.50;6.85;;;4.70;99.90;;;;;;5050117;28;20021;-48
2023/02/02 07:42:46;;;;;;;25.65;6.57;;;4.80;99.90;;;;;;5050658;28;20021;-48
2023/02/02 07:45:12;;;;;;;26.33;4.93;;;4.80;99.90;;;;;;5050666;28;20561;-50
2023/02/02 07:47:38;;;;;;;30.02;5.60;;;4.80;99.90;;;;;;5050335;28;20024;-51
2023/02/02 07:50:03;;;;;;;29.52;4.88;;;4.90;99.90;;;;;;5050511;28;20025;-47
2023/02/02 07:52:29;;;;;;;30.77;5.32;;;4.90;99.90;;;;;;5049908;28;20021;-49
2023/02/02 07:54:55;;;;;;;21.27;4.75;;;4.90;99.90;;;;;;5049753;28;20108;-49
2023/02/02 07:57:20;;;;;;;25.45;5.80;;;4.90;99.90;;;;;;5049819;28;20021;-48
2023/02/02 07:59:46;;;;;;;25.30;5.78;;;4.90;99.90;;;;;;5050448;28;20028;-48
2023/02/02 08:02:11;;;;;;;21.33;4.53;;;4.90;99.90;;;;;;5051076;28;20021;-46
2023/02/02 08:04:37;;;;;;;39.47;5.70;;;5.00;99.90;;;;;;5051267;28;20029;-50
2023/02/02 08:07:02;;;;;;;30.42;5.32;;;5.00;99.90;;;;;;5051644;28;20033;-49
2023/02/02 08:09:28;;;;;;;28.70;4.90;;;5.00;99.90;;;;;;5051349;28;20025;-48
2023/02/02 08:11:54;;;;;;;26.88;5.80;;;5.10;99.90;;;;;;5051211;28;20033;-46
2023/02/02 08:14:19;;;;;;;55.78;7.13;;;5.10;99.90;;;;;;5051501;28;20356;-51
2023/02/02 08:16:45;;;;;;;25.50;5.55;;;5.10;99.90;;;;;;5050934;28;20060;-46
2023/02/02 08:19:10;;;;;;;29.35;5.70;;;5.10;99.90;;;;;;5051749;28;20029;-47
2023/02/02 08:21:36;;;;;;;28.50;5.68;;;5.20;99.90;;;;;;5051276;28;20116;-48
2023/02/02 08:24:03;;;;;;;46.05;5.05;;;5.30;99.90;;;;;;5050814;28;20430;-48
2023/02/02 08:26:30;;;;;;;33.50;4.57;;;5.30;99.90;;;;;;5050760;28;20040;-50
2023/02/02 08:28:57;;;;;;;39.92;5.75;;;5.30;99.90;;;;;;5051671;28;20216;-50
2023/02/02 08:31:27;;;;;;;32.42;5.07;;;5.40;99.90;;;;;;5051260;28;20063;-48
2023/02/02 08:33:53;;;;;;;27.98;4.80;;;5.40;99.90;;;;;;5051284;28;20025;-47
2023/02/02 08:36:21;;;;;;;28.17;5.20;;;5.40;99.90;;;;;;5049552;28;20025;-49
2023/02/02 08:38:47;;;;;;;31.83;5.50;;;5.50;99.90;;;;;;5050995;28;20444;-48
2023/02/02 08:41:16;;;;;;;28.55;6.10;;;5.50;99.90;;;;;;5050676;28;20029;-51
2023/02/02 08:43:41;;;;;;;43.15;5.38;;;5.50;99.90;;;;;;5051420;28;20461;-50
2023/02/02 08:46:09;;;;;;;22.88;5.03;;;5.50;99.90;;;;;;5050359;28;20090;-49
2023/02/02 08:48:35;;;;;;;38.80;6.68;;;5.50;99.90;;;;;;5050888;28;20029;-47
2023/02/02 08:51:01;;;;;;;30.50;5.18;;;5.60;99.90;;;;;;5050862;28;20021;-46
2023/02/02 08:53:27;;;;;;;21.85;5.07;;;5.60;99.90;;;;;;5050511;28;20240;-47
2023/02/02 08:56:04;;;;;;;31.92;4.90;;;5.60;99.90;;;;;;5050519;28;20033;-47
2023/02/02 08:58:30;;;;;;;24.13;5.78;;;5.70;99.90;;;;;;5050658;28;20167;-48
2023/02/02 09:01:07;;;;;;;21.73;4.68;;;5.70;99.90;;;;;;5050701;28;20024;-48
2023/02/02 09:03:33;;;;;;;31.65;5.40;;;5.70;99.90;;;;;;5050642;28;20074;-47
2023/02/02 09:06:07;;;;;;;31.58;5.07;;;5.70;99.90;;;;;;5048893;28;20393;-48
2023/02/02 09:08:33;;;;;;;29.75;5.97;;;5.80;99.90;;;;;;5050538;28;20033;-51
2023/02/02 09:11:07;;;;;;;30.17;4.93;;;5.80;99.90;;;;;;5050261;28;20036;-51
2023/02/02 09:13:33;;;;;;;35.88;5.43;;;5.90;99.90;;;;;;5050344;28;20072;-48
2023/02/02 09:16:00;;;;;;;45.22;6.50;;;5.90;99.90;;;;;;5050213;28;20021;-50
2023/02/02 09:18:26;;;;;;;42.38;6.88;;;5.90;99.90;;;;;;5050732;28;20018;-48
2023/02/02 09:20:51;;;;;;;27.80;5.45;;;5.90;99.90;;;;;;5050529;28;20706;-50
2023/02/02 09:23:17;;;;;;;25.48;5.07;;;5.90;99.90;;;;;;5050299;28;20024;-47
2023/02/02 09:25:42;;;;;;;28.70;5.35;;;5.90;99.90;;;;;;5050312;28;20037;-48
2023/02/02 09:28:08;;;;;;;20.73;6.47;;;6.00;99.90;;;;;;5050416;28;20344;-50
2023/02/02 09:30:33;;;;;;;25.52;5.32;;;6.10;99.90;;;;;;5050363;28;20025;-51
2023/02/02 09:32:59;;;;;;;31.05;6.07;;;6.10;99.90;;;;;;5050229;28;20466;-49
2023/02/02 09:35:24;;;;;;;25.05;6.13;;;6.20;99.90;;;;;;5049208;28;20021;-48
2023/02/02 09:37:50;;;;;;;30.38;5.25;;;6.20;99.90;;;;;;5050337;28;20059;-49
2023/02/02 09:40:18;;;;;;;39.47;7.72;;;6.40;99.90;;;;;;5049860;28;20029;-52
2023/02/02 09:42:49;;;;;;;28.75;5.05;;;6.60;99.90;;;;;;5050134;28;20056;-48
2023/02/02 09:45:26;;;;;;;29.58;6.70;;;6.80;99.90;;;;;;5049298;28;20049;-48
2023/02/02 09:47:54;;;;;;;36.90;5.35;;;7.00;99.90;;;;;;5050006;28;20025;-48
2023/02/02 09:50:46;;;;;;;27.42;4.82;;;7.10;99.90;;;;;;5049847;28;20104;-49
2023/02/02 09:53:33;;;;;;;28.77;5.72;;;7.00;99.90;;;;;;5049481;28;20028;-50
2023/02/02 09:56:03;;;;;;;34.55;6.60;;;7.10;99.90;;;;;;5029270;28;20014;-50
2023/02/02 09:58:38;;;;;;;33.17;5.07;;;7.00;99.90;;;;;;5029794;28;20053;-47
2023/02/02 10:01:33;;;;;;;23.52;5.82;;;7.00;99.90;;;;;;5028473;28;20074;-49
2023/02/02 10:04:07;;;;;;;34.05;4.75;;;6.90;99.90;;;;;;5028434;28;20026;-50
2023/02/02 10:06:44;;;;;;;24.98;4.72;;;6.80;99.90;;;;;;5029222;28;20406;-47
2023/02/02 10:09:28;;;;;;;27.38;4.70;;;6.70;99.90;;;;;;5029629;28;20459;-47
2023/02/02 10:12:18;;;;;;;29.88;5.93;;;6.60;99.90;;;;;;5028111;28;20064;-49
2023/02/02 10:14:58;;;;;;;25.30;4.25;;;6.60;99.90;;;;;;5029081;28;20087;-48
2023/02/02 10:18:02;;;;;;;26.92;4.53;;;6.60;99.90;;;;;;5029853;28;20036;-49
2023/02/02 10:20:43;;;;;;;27.95;5.07;;;6.60;99.90;;;;;;5029840;28;20486;-50
2023/02/02 10:23:24;;;;;;;23.27;4.80;;;6.90;99.90;;;;;;5049456;28;20078;-48
2023/02/02 10:26:12;;;;;;;18.98;4.45;;;7.00;99.90;;;;;;5027560;28;20033;-48
2023/02/02 10:29:04;;;;;;;26.10;5.35;;;7.00;99.90;;;;;;5029473;28;20471;-51
2023/02/02 10:31:40;;;;;;;24.00;4.22;;;7.00;99.90;;;;;;5026361;28;20046;-48
2023/02/02 10:34:27;;;;;;;29.70;5.43;;;6.90;99.90;;;;;;5029291;28;20104;-50
2023/02/02 10:37:22;;;;;;;29.27;5.50;;;6.90;99.90;;;;;;5028981;28;20036;-48
2023/02/02 10:40:16;;;;;;;26.00;4.70;;;7.10;99.90;;;;;;5029615;28;20014;-51
2023/02/02 10:43:44;;;;;;;26.15;5.22;;;7.20;99.90;;;;;;5029487;28;20030;-48
2023/02/02 10:45:39;;;;;;;25.88;4.45;;;7.30;99.90;;;;;;5029385;28;20029;-47
2023/02/02 10:48:14;;;;;;;22.67;4.72;;;7.40;99.90;;;;;;5033623;28;20026;-51
2023/02/02 10:50:45;;;;;;;16.13;4.50;;;7.60;99.90;;;;;;5035123;28;20276;-51
2023/02/02 10:53:14;;;;;;;23.60;5.05;;;7.50;99.90;;;;;;5053234;28;20108;-48
2023/02/02 10:55:55;;;;;;;23.67;5.38;;;7.40;99.90;;;;;;5032776;28;20029;-49
2023/02/02 10:58:27;;;;;;;23.25;5.93;;;7.40;99.90;;;;;;5033264;28;20059;-51
2023/02/02 11:00:54;;;;;;;16.73;4.60;;;7.50;99.90;;;;;;5033191;28;20036;-49
2023/02/02 11:03:28;;;;;;;24.40;6.07;;;7.60;99.90;;;;;;5033021;28;20221;-48
2023/02/02 11:08:40;;;;;;;31.90;5.65;;;7.60;99.90;;;;;;5033223;28;20033;-52
2023/02/02 11:11:28;;;;;;;27.20;5.05;;;7.80;99.90;;;;;;5031797;28;20161;-51
2023/02/02 11:13:58;;;;;;;30.85;5.30;;;8.60;99.90;;;;;;5033419;28;20408;-48
2023/02/02 11:16:26;;;;;;;24.67;5.88;;;9.40;99.90;;;;;;5032275;28;20034;-51
2023/02/02 11:18:52;;;;;;;19.83;4.40;;;10.40;99.90;;;;;;5032813;28;20033;-49
2023/02/02 11:21:23;;;;;;;19.10;4.80;;;10.50;99.90;;;;;;5035995;28;20049;-48
2023/02/02 11:24:01;;;;;;;18.15;3.83;;;11.50;99.90;;;;;;5052598;28;20043;-51
2023/02/02 11:26:59;;;;;;;21.85;5.22;;;12.30;99.90;;;;;;5051855;28;20025;-50
2023/02/02 11:29:41;;;;;;;22.40;6.07;;;12.60;99.90;;;;;;5052506;28;20021;-51
2023/02/02 11:32:33;;;;;;;30.27;6.90;;;12.30;99.90;;;;;;5052456;28;20459;-52
2023/02/02 11:35:05;;;;;;;19.02;4.65;;;11.80;99.90;;;;;;5046689;28;20114;-51
2023/02/02 11:37:35;;;;;;;14.98;4.53;;;11.50;99.90;;;;;;5049163;28;20029;-48
2023/02/02 11:40:24;;;;;;;23.05;5.15;;;12.00;99.90;;;;;;5052671;28;20466;-48
2023/02/02 11:42:50;;;;;;;27.23;4.70;;;12.30;99.90;;;;;;5052305;28;20497;-47
2023/02/02 11:45:18;;;;;;;24.15;4.78;;;12.20;99.90;;;;;;5051852;28;20033;-48
2023/02/02 11:47:45;;;;;;;17.60;4.45;;;11.80;99.90;;;;;;5052142;28;20025;-49
2023/02/02 11:50:25;;;;;;;18.33;4.30;;;10.90;99.90;;;;;;5052125;28;20508;-48
2023/02/02 11:52:51;;;;;;;21.63;4.03;;;10.10;99.90;;;;;;5052030;28;20021;-48
2023/02/02 11:55:25;;;;;;;21.70;4.07;;;9.60;99.90;;;;;;5051642;28;20040;-48
2023/02/02 11:58:26;;;;;;;22.92;3.85;;;9.20;99.90;;;;;;5051279;28;20029;-48
2023/02/02 12:01:01;;;;;;;23.17;3.80;;;8.90;99.90;;;;;;5052266;28;20096;-48
2023/02/02 12:03:31;;;;;;;20.42;4.55;;;9.00;99.90;;;;;;5052201;28;20056;-47
2023/02/02 12:05:57;;;;;;;23.10;4.70;;;9.80;99.90;;;;;;5051498;28;20032;-48
2023/02/02 12:08:23;;;;;;;21.17;4.43;;;10.30;99.90;;;;;;5051819;28;20065;-50
2023/02/02 12:10:52;;;;;;;21.73;3.85;;;10.00;99.90;;;;;;5051414;28;20083;-48
2023/02/02 12:13:41;;;;;;;24.58;4.68;;;9.90;99.90;;;;;;5051561;28;20057;-49
2023/02/02 12:16:34;;;;;;;18.17;3.53;;;9.50;99.90;;;;;;5051511;28;20017;-48
2023/02/02 12:19:11;;;;;;;14.80;4.22;;;9.00;99.90;;;;;;5051604;28;20111;-48
2023/02/02 12:21:56;;;;;;;18.45;3.92;;;8.70;99.90;;;;;;5049985;28;20425;-48
2023/02/02 12:24:35;;;;;;;20.88;5.05;;;8.50;99.90;;;;;;5051218;28;20071;-49
2023/02/02 12:27:20;;;;;;;19.85;4.53;;;8.10;99.90;;;;;;5051221;28;20056;-51
2023/02/02 12:30:06;;;;;;;21.77;3.47;;;8.00;99.90;;;;;;5051553;28;20078;-48
2023/02/02 12:32:59;;;;;;;15.95;5.20;;;7.90;99.90;;;;;;5035938;28;20082;-48
2023/02/02 12:35:31;;;;;;;18.58;5.38;;;8.00;99.90;;;;;;5050797;28;20033;-48
2023/02/02 12:38:23;;;;;;;25.05;3.55;;;8.00;99.90;;;;;;5051265;28;20025;-48
2023/02/02 12:40:58;;;;;;;11.57;3.85;;;8.00;99.90;;;;;;5051097;28;20067;-48
2023/02/02 12:43:47;;;;;;;22.92;3.83;;;8.00;99.90;;;;;;5049906;28;20526;-47
2023/02/02 12:46:37;;;;;;;26.38;3.65;;;7.90;99.90;;;;;;5050428;28;20114;-48
2023/02/02 12:49:24;;;;;;;18.33;4.45;;;7.80;99.90;;;;;;5051085;28;20025;-47
2023/02/02 12:52:15;;;;;;;14.80;3.50;;;7.70;99.90;;;;;;5050919;28;20031;-47
2023/02/02 12:55:05;;;;;;;17.35;4.22;;;7.60;99.90;;;;;;5042433;28;20032;-49
2023/02/02 12:57:46;;;;;;;;;;;7.50;99.90;;;;;;5051182;28;20025;-50
2023/02/02 13:00:49;;;;;;;17.00;4.03;;;7.50;99.90;;;;;;5050821;28;19932;-47
2023/02/02 13:03:22;;;;;;;15.18;3.30;;;7.50;99.90;;;;;;5051078;28;20028;-51
2023/02/02 13:06:01;;;;;;;27.35;4.93;;;7.50;99.90;;;;;;5050347;28;20021;-48
2023/02/02 13:08:38;;;;;;;24.15;4.15;;;7.40;99.90;;;;;;5050889;28;20040;-47
2023/02/02 13:11:28;;;;;;;22.92;4.53;;;7.30;99.90;;;;;;5049082;28;20118;-48
2023/02/02 13:14:53;;;;;;;21.55;3.47;;;7.30;99.90;;;;;;5050462;28;20028;-48
2023/02/02 13:17:48;;;;;;;15.80;3.55;;;7.40;99.90;;;;;;4988282;28;20396;-47